sensor_id;sensor_type;location;lat;lon;timestamp;P1;durP1;ratioP1;P2;durP2;ratioP2
82505;SDS011;72144;51.444;10.560;2024-02-15T00:00:09;3.67;;;2.53;;
82505;SDS011;72144;51.444;10.560;2024-02-15T00:02:35;3.25;;;2.33;;
82505;SDS011;72144;51.444;10.560;2024-02-15T00:05:00;3.75;;;2.83;;
82505;SDS011;72144;51.444;10.560;2024-02-15T00:07:26;5.22;;;2.80;;
82505;SDS011;72144;51.444;10.560;2024-02-15T00:09:51;2.92;;;2.25;;
82505;SDS011;72144;51.444;10.560;2024-02-15T00:12:18;3.80;;;2.63;;
82505;SDS011;72144;51.444;10.560;2024-02-15T00:14:44;1.88;;;1.55;;
82505;SDS011;72144;51.444;10.560;2024-02-15T00:17:09;3.65;;;2.67;;
82505;SDS011;72144;51.444;10.560;2024-02-15T00:19:37;3.95;;;2.65;;
82505;SDS011;72144;51.444;10.560;2024-02-15T00:22:03;2.88;;;2.40;;
82505;SDS011;72144;51.444;10.560;2024-02-15T00:24:29;1.98;;;1.73;;
82505;SDS011;72144;51.444;10.560;2024-02-15T00:26:56;1.98;;;1.55;;
82505;SDS011;72144;51.444;10.560;2024-02-15T00:29:21;1.75;;;1.33;;
82505;SDS011;72144;51.444;10.560;2024-02-15T00:31:47;0.93;;;0.88;;
82505;SDS011;72144;51.444;10.560;2024-02-15T00:34:12;3.70;;;2.30;;
82505;SDS011;72144;51.444;10.560;2024-02-15T00:36:37;3.88;;;2.53;;
82505;SDS011;72144;51.444;10.560;2024-02-15T00:39:03;0.82;;;0.80;;
82505;SDS011;72144;51.444;10.560;2024-02-15T00:41:31;4.30;;;2.33;;
82505;SDS011;72144;51.444;10.560;2024-02-15T00:43:58;2.75;;;1.90;;
82505;SDS011;72144;51.444;10.560;2024-02-15T00:46:24;3.70;;;2.58;;
82505;SDS011;72144;51.444;10.560;2024-02-15T00:48:54;3.03;;;2.40;;
82505;SDS011;72144;51.444;10.560;2024-02-15T00:51:19;3.72;;;2.45;;
82505;SDS011;72144;51.444;10.560;2024-02-15T00:53:45;3.83;;;2.35;;
82505;SDS011;72144;51.444;10.560;2024-02-15T00:56:10;1.90;;;1.58;;
82505;SDS011;72144;51.444;10.560;2024-02-15T00:58:36;1.48;;;1.33;;
82505;SDS011;72144;51.444;10.560;2024-02-15T01:01:02;1.55;;;1.10;;
82505;SDS011;72144;51.444;10.560;2024-02-15T01:03:27;2.15;;;1.38;;
82505;SDS011;72144;51.444;10.560;2024-02-15T01:05:53;3.42;;;2.22;;
82505;SDS011;72144;51.444;10.560;2024-02-15T01:08:18;0.80;;;0.80;;
82505;SDS011;72144;51.444;10.560;2024-02-15T01:10:45;3.05;;;2.17;;
82505;SDS011;72144;51.444;10.560;2024-02-15T01:13:10;3.58;;;2.50;;
82505;SDS011;72144;51.444;10.560;2024-02-15T01:15:37;3.83;;;2.45;;
82505;SDS011;72144;51.444;10.560;2024-02-15T01:18:04;3.72;;;2.40;;
82505;SDS011;72144;51.444;10.560;2024-02-15T01:20:29;3.20;;;2.45;;
82505;SDS011;72144;51.444;10.560;2024-02-15T01:22:55;4.22;;;2.40;;
82505;SDS011;72144;51.444;10.560;2024-02-15T01:25:21;2.83;;;2.13;;
82505;SDS011;72144;51.444;10.560;2024-02-15T01:27:46;2.63;;;1.95;;
82505;SDS011;72144;51.444;10.560;2024-02-15T01:30:13;3.17;;;2.20;;
82505;SDS011;72144;51.444;10.560;2024-02-15T01:32:38;3.17;;;2.13;;
82505;SDS011;72144;51.444;10.560;2024-02-15T01:35:07;3.72;;;2.63;;
82505;SDS011;72144;51.444;10.560;2024-02-15T01:37:35;1.67;;;1.38;;
82505;SDS011;72144;51.444;10.560;2024-02-15T01:40:01;3.40;;;2.42;;
82505;SDS011;72144;51.444;10.560;2024-02-15T01:42:27;3.70;;;2.40;;
82505;SDS011;72144;51.444;10.560;2024-02-15T01:44:52;2.45;;;1.67;;
82505;SDS011;72144;51.444;10.560;2024-02-15T01:47:18;2.17;;;1.35;;
82505;SDS011;72144;51.444;10.560;2024-02-15T01:49:47;2.28;;;1.52;;
82505;SDS011;72144;51.444;10.560;2024-02-15T01:52:15;2.63;;;2.10;;
82505;SDS011;72144;51.444;10.560;2024-02-15T01:54:42;2.28;;;1.63;;
82505;SDS011;72144;51.444;10.560;2024-02-15T01:57:08;2.83;;;2.17;;
82505;SDS011;72144;51.444;10.560;2024-02-15T01:59:33;0.70;;;0.70;;
82505;SDS011;72144;51.444;10.560;2024-02-15T02:01:59;3.67;;;2.63;;
82505;SDS011;72144;51.444;10.560;2024-02-15T02:04:27;3.25;;;2.40;;
82505;SDS011;72144;51.444;10.560;2024-02-15T02:06:52;3.30;;;2.28;;
82505;SDS011;72144;51.444;10.560;2024-02-15T02:09:23;3.40;;;2.40;;
82505;SDS011;72144;51.444;10.560;2024-02-15T02:11:49;3.58;;;2.40;;
82505;SDS011;72144;51.444;10.560;2024-02-15T02:14:15;3.60;;;2.40;;
82505;SDS011;72144;51.444;10.560;2024-02-15T02:16:41;3.88;;;2.67;;
82505;SDS011;72144;51.444;10.560;2024-02-15T02:19:07;1.05;;;0.88;;
82505;SDS011;72144;51.444;10.560;2024-02-15T02:21:34;3.38;;;2.22;;
82505;SDS011;72144;51.444;10.560;2024-02-15T02:24:00;3.25;;;2.40;;
82505;SDS011;72144;51.444;10.560;2024-02-15T02:26:28;2.63;;;1.98;;
82505;SDS011;72144;51.444;10.560;2024-02-15T02:28:54;2.60;;;1.90;;
82505;SDS011;72144;51.444;10.560;2024-02-15T02:31:20;3.17;;;2.10;;
82505;SDS011;72144;51.444;10.560;2024-02-15T02:33:51;2.20;;;1.42;;
82505;SDS011;72144;51.444;10.560;2024-02-15T02:36:18;3.92;;;2.53;;
82505;SDS011;72144;51.444;10.560;2024-02-15T02:38:44;2.28;;;1.90;;
82505;SDS011;72144;51.444;10.560;2024-02-15T02:41:16;3.47;;;2.60;;
82505;SDS011;72144;51.444;10.560;2024-02-15T02:43:42;5.07;;;2.88;;
82505;SDS011;72144;51.444;10.560;2024-02-15T02:46:10;4.43;;;2.75;;
82505;SDS011;72144;51.444;10.560;2024-02-15T02:48:36;4.03;;;2.20;;
82505;SDS011;72144;51.444;10.560;2024-02-15T02:51:02;3.80;;;2.75;;
82505;SDS011;72144;51.444;10.560;2024-02-15T02:53:28;5.30;;;2.95;;
82505;SDS011;72144;51.444;10.560;2024-02-15T02:55:55;3.53;;;2.67;;
82505;SDS011;72144;51.444;10.560;2024-02-15T02:58:21;6.07;;;2.85;;
82505;SDS011;72144;51.444;10.560;2024-02-15T03:00:48;4.18;;;3.03;;
82505;SDS011;72144;51.444;10.560;2024-02-15T03:03:13;3.92;;;2.83;;
82505;SDS011;72144;51.444;10.560;2024-02-15T03:05:39;4.50;;;3.05;;
82505;SDS011;72144;51.444;10.560;2024-02-15T03:08:05;3.80;;;2.60;;
82505;SDS011;72144;51.444;10.560;2024-02-15T03:10:31;2.40;;;1.67;;
82505;SDS011;72144;51.444;10.560;2024-02-15T03:12:56;4.63;;;2.70;;
82505;SDS011;72144;51.444;10.560;2024-02-15T03:15:21;4.38;;;3.00;;
82505;SDS011;72144;51.444;10.560;2024-02-15T03:17:48;3.30;;;1.60;;
82505;SDS011;72144;51.444;10.560;2024-02-15T03:20:13;3.88;;;2.67;;
82505;SDS011;72144;51.444;10.560;2024-02-15T03:22:54;3.65;;;2.90;;
82505;SDS011;72144;51.444;10.560;2024-02-15T03:25:21;4.47;;;3.15;;
82505;SDS011;72144;51.444;10.560;2024-02-15T03:27:49;4.25;;;2.78;;
82505;SDS011;72144;51.444;10.560;2024-02-15T03:30:16;3.22;;;2.63;;
82505;SDS011;72144;51.444;10.560;2024-02-15T03:32:42;3.90;;;2.97;;
82505;SDS011;72144;51.444;10.560;2024-02-15T03:35:08;3.65;;;2.60;;
82505;SDS011;72144;51.444;10.560;2024-02-15T03:37:33;3.90;;;2.80;;
82505;SDS011;72144;51.444;10.560;2024-02-15T03:40:02;3.80;;;2.63;;
82505;SDS011;72144;51.444;10.560;2024-02-15T03:42:29;3.75;;;2.60;;
82505;SDS011;72144;51.444;10.560;2024-02-15T03:44:55;1.88;;;1.13;;
82505;SDS011;72144;51.444;10.560;2024-02-15T03:47:20;3.80;;;2.63;;
82505;SDS011;72144;51.444;10.560;2024-02-15T03:49:46;4.10;;;2.33;;
82505;SDS011;72144;51.444;10.560;2024-02-15T03:52:12;4.30;;;2.70;;
82505;SDS011;72144;51.444;10.560;2024-02-15T03:54:38;3.63;;;2.50;;
82505;SDS011;72144;51.444;10.560;2024-02-15T03:57:03;3.85;;;2.78;;
82505;SDS011;72144;51.444;10.560;2024-02-15T03:59:31;2.58;;;1.10;;
82505;SDS011;72144;51.444;10.560;2024-02-15T04:01:57;3.63;;;2.67;;
82505;SDS011;72144;51.444;10.560;2024-02-15T04:04:23;4.63;;;2.65;;
82505;SDS011;72144;51.444;10.560;2024-02-15T04:06:51;3.60;;;2.60;;
82505;SDS011;72144;51.444;10.560;2024-02-15T04:09:17;3.33;;;2.38;;
82505;SDS011;72144;51.444;10.560;2024-02-15T04:11:43;4.38;;;2.35;;
82505;SDS011;72144;51.444;10.560;2024-02-15T04:14:12;4.22;;;3.00;;
82505;SDS011;72144;51.444;10.560;2024-02-15T04:16:37;5.53;;;2.63;;
82505;SDS011;72144;51.444;10.560;2024-02-15T04:19:02;6.35;;;3.30;;
82505;SDS011;72144;51.444;10.560;2024-02-15T04:21:29;4.60;;;2.75;;
82505;SDS011;72144;51.444;10.560;2024-02-15T04:23:55;4.00;;;2.30;;
82505;SDS011;72144;51.444;10.560;2024-02-15T04:26:21;4.35;;;2.90;;
82505;SDS011;72144;51.444;10.560;2024-02-15T04:28:46;2.58;;;1.77;;
82505;SDS011;72144;51.444;10.560;2024-02-15T04:31:17;4.35;;;2.85;;
82505;SDS011;72144;51.444;10.560;2024-02-15T04:33:42;5.22;;;3.38;;
82505;SDS011;72144;51.444;10.560;2024-02-15T04:36:08;4.30;;;2.95;;
82505;SDS011;72144;51.444;10.560;2024-02-15T04:38:33;3.47;;;2.28;;
82505;SDS011;72144;51.444;10.560;2024-02-15T04:41:00;4.35;;;3.10;;
82505;SDS011;72144;51.444;10.560;2024-02-15T04:43:34;3.92;;;2.90;;
82505;SDS011;72144;51.444;10.560;2024-02-15T04:46:02;3.72;;;3.03;;
82505;SDS011;72144;51.444;10.560;2024-02-15T04:48:32;3.30;;;2.47;;
82505;SDS011;72144;51.444;10.560;2024-02-15T04:50:59;3.80;;;2.50;;
82505;SDS011;72144;51.444;10.560;2024-02-15T04:53:25;4.57;;;3.00;;
82505;SDS011;72144;51.444;10.560;2024-02-15T04:55:50;5.03;;;2.92;;
82505;SDS011;72144;51.444;10.560;2024-02-15T04:58:15;5.13;;;3.05;;
82505;SDS011;72144;51.444;10.560;2024-02-15T05:00:41;4.40;;;2.88;;
82505;SDS011;72144;51.444;10.560;2024-02-15T05:03:07;4.07;;;2.83;;
82505;SDS011;72144;51.444;10.560;2024-02-15T05:05:33;3.92;;;2.28;;
82505;SDS011;72144;51.444;10.560;2024-02-15T05:07:58;4.60;;;2.72;;
82505;SDS011;72144;51.444;10.560;2024-02-15T05:10:26;3.70;;;2.60;;
82505;SDS011;72144;51.444;10.560;2024-02-15T05:12:51;5.28;;;2.97;;
82505;SDS011;72144;51.444;10.560;2024-02-15T05:15:18;3.47;;;2.53;;
82505;SDS011;72144;51.444;10.560;2024-02-15T05:17:47;6.40;;;2.90;;
82505;SDS011;72144;51.444;10.560;2024-02-15T05:20:13;4.78;;;3.03;;
82505;SDS011;72144;51.444;10.560;2024-02-15T05:22:39;4.57;;;3.00;;
82505;SDS011;72144;51.444;10.560;2024-02-15T05:25:06;3.65;;;2.90;;
82505;SDS011;72144;51.444;10.560;2024-02-15T05:27:33;4.80;;;2.90;;
82505;SDS011;72144;51.444;10.560;2024-02-15T05:29:59;3.63;;;2.65;;
82505;SDS011;72144;51.444;10.560;2024-02-15T05:32:24;5.32;;;2.50;;
82505;SDS011;72144;51.444;10.560;2024-02-15T05:34:51;4.63;;;3.35;;
82505;SDS011;72144;51.444;10.560;2024-02-15T05:37:18;4.15;;;2.88;;
82505;SDS011;72144;51.444;10.560;2024-02-15T05:39:44;2.42;;;1.73;;
82505;SDS011;72144;51.444;10.560;2024-02-15T05:42:10;5.03;;;2.65;;
82505;SDS011;72144;51.444;10.560;2024-02-15T05:44:35;3.83;;;2.97;;
82505;SDS011;72144;51.444;10.560;2024-02-15T05:47:01;4.82;;;3.20;;
82505;SDS011;72144;51.444;10.560;2024-02-15T05:49:26;4.60;;;2.90;;
82505;SDS011;72144;51.444;10.560;2024-02-15T05:51:52;5.25;;;3.03;;
82505;SDS011;72144;51.444;10.560;2024-02-15T05:54:21;5.20;;;2.72;;
82505;SDS011;72144;51.444;10.560;2024-02-15T05:56:50;3.80;;;2.65;;
82505;SDS011;72144;51.444;10.560;2024-02-15T05:59:16;6.07;;;3.22;;
82505;SDS011;72144;51.444;10.560;2024-02-15T06:01:45;3.75;;;2.55;;
82505;SDS011;72144;51.444;10.560;2024-02-15T06:04:10;4.10;;;3.03;;
82505;SDS011;72144;51.444;10.560;2024-02-15T06:06:37;4.80;;;3.00;;
82505;SDS011;72144;51.444;10.560;2024-02-15T06:09:03;3.80;;;1.90;;
82505;SDS011;72144;51.444;10.560;2024-02-15T06:11:29;4.45;;;2.90;;
82505;SDS011;72144;51.444;10.560;2024-02-15T06:13:55;5.72;;;3.08;;
82505;SDS011;72144;51.444;10.560;2024-02-15T06:16:20;4.70;;;2.97;;
82505;SDS011;72144;51.444;10.560;2024-02-15T06:18:46;6.63;;;3.42;;
82505;SDS011;72144;51.444;10.560;2024-02-15T06:21:13;4.68;;;2.83;;
82505;SDS011;72144;51.444;10.560;2024-02-15T06:23:38;3.97;;;2.60;;
82505;SDS011;72144;51.444;10.560;2024-02-15T06:26:04;5.40;;;3.40;;
82505;SDS011;72144;51.444;10.560;2024-02-15T06:28:30;4.72;;;3.13;;
82505;SDS011;72144;51.444;10.560;2024-02-15T06:31:14;5.03;;;3.33;;
82505;SDS011;72144;51.444;10.560;2024-02-15T06:34:04;12.45;;;5.90;;
82505;SDS011;72144;51.444;10.560;2024-02-15T06:36:59;4.63;;;2.80;;
82505;SDS011;72144;51.444;10.560;2024-02-15T06:39:43;9.07;;;4.90;;
82505;SDS011;72144;51.444;10.560;2024-02-15T06:42:12;5.07;;;3.90;;
82505;SDS011;72144;51.444;10.560;2024-02-15T06:44:44;7.63;;;4.10;;
82505;SDS011;72144;51.444;10.560;2024-02-15T06:47:11;6.82;;;4.28;;
82505;SDS011;72144;51.444;10.560;2024-02-15T06:49:37;5.78;;;3.75;;
82505;SDS011;72144;51.444;10.560;2024-02-15T06:52:07;6.57;;;4.05;;
82505;SDS011;72144;51.444;10.560;2024-02-15T06:54:33;6.10;;;3.70;;
82505;SDS011;72144;51.444;10.560;2024-02-15T06:57:00;7.07;;;3.55;;
82505;SDS011;72144;51.444;10.560;2024-02-15T06:59:27;6.25;;;3.67;;
82505;SDS011;72144;51.444;10.560;2024-02-15T07:01:52;8.38;;;3.40;;
82505;SDS011;72144;51.444;10.560;2024-02-15T07:04:18;6.25;;;3.60;;
82505;SDS011;72144;51.444;10.560;2024-02-15T07:06:45;7.93;;;3.92;;
82505;SDS011;72144;51.444;10.560;2024-02-15T07:09:13;7.00;;;3.83;;
82505;SDS011;72144;51.444;10.560;2024-02-15T07:11:44;6.57;;;3.80;;
82505;SDS011;72144;51.444;10.560;2024-02-15T07:14:11;6.20;;;3.80;;
82505;SDS011;72144;51.444;10.560;2024-02-15T07:16:37;5.32;;;3.83;;
82505;SDS011;72144;51.444;10.560;2024-02-15T07:19:03;5.80;;;3.63;;
82505;SDS011;72144;51.444;10.560;2024-02-15T07:21:28;3.53;;;2.25;;
82505;SDS011;72144;51.444;10.560;2024-02-15T07:23:54;6.30;;;3.60;;
82505;SDS011;72144;51.444;10.560;2024-02-15T07:26:21;5.88;;;3.25;;
82505;SDS011;72144;51.444;10.560;2024-02-15T07:28:58;6.00;;;3.17;;
82505;SDS011;72144;51.444;10.560;2024-02-15T07:31:27;5.78;;;3.72;;
82505;SDS011;72144;51.444;10.560;2024-02-15T07:33:54;5.05;;;3.30;;
82505;SDS011;72144;51.444;10.560;2024-02-15T07:36:20;5.25;;;3.45;;
82505;SDS011;72144;51.444;10.560;2024-02-15T07:38:49;4.90;;;3.40;;
82505;SDS011;72144;51.444;10.560;2024-02-15T07:41:16;4.70;;;3.25;;
82505;SDS011;72144;51.444;10.560;2024-02-15T07:43:43;4.82;;;3.30;;
82505;SDS011;72144;51.444;10.560;2024-02-15T07:46:11;6.13;;;3.92;;
82505;SDS011;72144;51.444;10.560;2024-02-15T07:48:38;5.63;;;3.53;;
82505;SDS011;72144;51.444;10.560;2024-02-15T07:51:04;4.80;;;3.38;;
82505;SDS011;72144;51.444;10.560;2024-02-15T07:53:34;6.07;;;3.40;;
82505;SDS011;72144;51.444;10.560;2024-02-15T07:56:00;5.55;;;3.17;;
82505;SDS011;72144;51.444;10.560;2024-02-15T07:58:25;4.78;;;3.05;;
82505;SDS011;72144;51.444;10.560;2024-02-15T08:00:51;5.40;;;3.60;;
82505;SDS011;72144;51.444;10.560;2024-02-15T08:03:16;4.57;;;3.28;;
82505;SDS011;72144;51.444;10.560;2024-02-15T08:05:41;7.05;;;3.70;;
82505;SDS011;72144;51.444;10.560;2024-02-15T08:08:07;6.18;;;3.25;;
82505;SDS011;72144;51.444;10.560;2024-02-15T08:10:32;4.53;;;3.13;;
82505;SDS011;72144;51.444;10.560;2024-02-15T08:12:58;5.60;;;3.53;;
82505;SDS011;72144;51.444;10.560;2024-02-15T08:15:24;5.63;;;3.38;;
82505;SDS011;72144;51.444;10.560;2024-02-15T08:17:52;7.20;;;3.20;;
82505;SDS011;72144;51.444;10.560;2024-02-15T08:20:20;6.50;;;3.72;;
82505;SDS011;72144;51.444;10.560;2024-02-15T08:22:46;5.57;;;4.20;;
82505;SDS011;72144;51.444;10.560;2024-02-15T08:25:12;5.95;;;3.88;;
82505;SDS011;72144;51.444;10.560;2024-02-15T08:27:40;5.75;;;3.10;;
82505;SDS011;72144;51.444;10.560;2024-02-15T08:30:10;5.63;;;3.50;;
82505;SDS011;72144;51.444;10.560;2024-02-15T08:32:39;6.85;;;3.78;;
82505;SDS011;72144;51.444;10.560;2024-02-15T08:35:07;6.40;;;3.50;;
82505;SDS011;72144;51.444;10.560;2024-02-15T08:37:33;5.93;;;3.80;;
82505;SDS011;72144;51.444;10.560;2024-02-15T08:40:00;6.20;;;3.78;;
82505;SDS011;72144;51.444;10.560;2024-02-15T08:42:26;6.05;;;4.05;;
82505;SDS011;72144;51.444;10.560;2024-02-15T08:44:51;5.95;;;3.75;;
82505;SDS011;72144;51.444;10.560;2024-02-15T08:47:17;6.63;;;3.30;;
82505;SDS011;72144;51.444;10.560;2024-02-15T08:49:42;4.95;;;3.45;;
82505;SDS011;72144;51.444;10.560;2024-02-15T08:52:08;5.15;;;3.30;;
82505;SDS011;72144;51.444;10.560;2024-02-15T08:54:33;5.95;;;3.53;;
82505;SDS011;72144;51.444;10.560;2024-02-15T08:56:59;6.05;;;3.72;;
82505;SDS011;72144;51.444;10.560;2024-02-15T08:59:26;8.30;;;3.33;;
82505;SDS011;72144;51.444;10.560;2024-02-15T09:01:53;6.60;;;4.10;;
82505;SDS011;72144;51.444;10.560;2024-02-15T09:04:19;6.15;;;3.75;;
82505;SDS011;72144;51.444;10.560;2024-02-15T09:06:46;5.55;;;3.65;;
82505;SDS011;72144;51.444;10.560;2024-02-15T09:09:12;6.57;;;3.83;;
82505;SDS011;72144;51.444;10.560;2024-02-15T09:11:37;5.90;;;3.05;;
82505;SDS011;72144;51.444;10.560;2024-02-15T09:14:02;5.25;;;3.00;;
82505;SDS011;72144;51.444;10.560;2024-02-15T09:16:28;7.50;;;3.50;;
82505;SDS011;72144;51.444;10.560;2024-02-15T09:18:54;5.72;;;3.30;;
82505;SDS011;72144;51.444;10.560;2024-02-15T09:21:20;4.80;;;2.92;;
82505;SDS011;72144;51.444;10.560;2024-02-15T09:23:46;5.50;;;3.40;;
82505;SDS011;72144;51.444;10.560;2024-02-15T09:26:13;6.45;;;3.17;;
82505;SDS011;72144;51.444;10.560;2024-02-15T09:28:39;6.05;;;2.83;;
82505;SDS011;72144;51.444;10.560;2024-02-15T09:31:05;7.45;;;3.42;;
82505;SDS011;72144;51.444;10.560;2024-02-15T09:33:30;6.38;;;3.10;;
82505;SDS011;72144;51.444;10.560;2024-02-15T09:35:56;4.40;;;2.72;;
82505;SDS011;72144;51.444;10.560;2024-02-15T09:38:21;3.67;;;2.75;;
82505;SDS011;72144;51.444;10.560;2024-02-15T09:40:49;9.13;;;2.80;;
82505;SDS011;72144;51.444;10.560;2024-02-15T09:43:15;5.20;;;2.70;;
82505;SDS011;72144;51.444;10.560;2024-02-15T09:45:41;5.53;;;2.53;;
82505;SDS011;72144;51.444;10.560;2024-02-15T09:48:06;6.57;;;2.55;;
82505;SDS011;72144;51.444;10.560;2024-02-15T09:50:35;3.38;;;2.40;;
82505;SDS011;72144;51.444;10.560;2024-02-15T09:53:07;4.57;;;2.10;;
82505;SDS011;72144;51.444;10.560;2024-02-15T09:55:34;5.75;;;3.08;;
82505;SDS011;72144;51.444;10.560;2024-02-15T09:58:00;6.22;;;2.47;;
82505;SDS011;72144;51.444;10.560;2024-02-15T10:00:26;3.60;;;2.60;;
82505;SDS011;72144;51.444;10.560;2024-02-15T10:02:51;3.88;;;2.72;;
82505;SDS011;72144;51.444;10.560;2024-02-15T10:05:18;4.93;;;2.58;;
82505;SDS011;72144;51.444;10.560;2024-02-15T10:07:44;4.15;;;2.50;;
82505;SDS011;72144;51.444;10.560;2024-02-15T10:10:20;5.50;;;2.63;;
82505;SDS011;72144;51.444;10.560;2024-02-15T10:12:47;4.35;;;2.75;;
82505;SDS011;72144;51.444;10.560;2024-02-15T10:15:34;4.85;;;2.42;;
82505;SDS011;72144;51.444;10.560;2024-02-15T10:18:02;3.92;;;2.80;;
82505;SDS011;72144;51.444;10.560;2024-02-15T10:20:28;5.05;;;2.58;;
82505;SDS011;72144;51.444;10.560;2024-02-15T10:25:26;3.75;;;2.60;;
82505;SDS011;72144;51.444;10.560;2024-02-15T10:27:53;5.82;;;3.00;;
82505;SDS011;72144;51.444;10.560;2024-02-15T10:30:32;4.07;;;3.20;;
82505;SDS011;72144;51.444;10.560;2024-02-15T10:32:59;3.35;;;2.17;;
82505;SDS011;72144;51.444;10.560;2024-02-15T10:35:25;4.72;;;3.13;;
82505;SDS011;72144;51.444;10.560;2024-02-15T10:37:51;5.53;;;3.30;;
82505;SDS011;72144;51.444;10.560;2024-02-15T10:40:20;3.92;;;2.58;;
82505;SDS011;72144;51.444;10.560;2024-02-15T10:42:50;3.97;;;2.42;;
82505;SDS011;72144;51.444;10.560;2024-02-15T10:45:16;6.53;;;3.07;;
82505;SDS011;72144;51.444;10.560;2024-02-15T10:47:45;4.60;;;2.80;;
82505;SDS011;72144;51.444;10.560;2024-02-15T10:50:12;3.70;;;2.60;;
82505;SDS011;72144;51.444;10.560;2024-02-15T10:52:41;4.63;;;3.20;;
82505;SDS011;72144;51.444;10.560;2024-02-15T10:55:13;3.75;;;2.83;;
82505;SDS011;72144;51.444;10.560;2024-02-15T10:57:46;3.97;;;2.92;;
82505;SDS011;72144;51.444;10.560;2024-02-15T11:00:15;5.45;;;2.63;;
82505;SDS011;72144;51.444;10.560;2024-02-15T11:03:01;7.22;;;3.05;;
82505;SDS011;72144;51.444;10.560;2024-02-15T11:05:31;7.57;;;3.42;;
82505;SDS011;72144;51.444;10.560;2024-02-15T11:07:59;5.25;;;2.88;;
82505;SDS011;72144;51.444;10.560;2024-02-15T11:10:25;6.00;;;3.35;;
82505;SDS011;72144;51.444;10.560;2024-02-15T11:12:52;5.03;;;2.72;;
82505;SDS011;72144;51.444;10.560;2024-02-15T11:18:01;5.70;;;3.55;;
82505;SDS011;72144;51.444;10.560;2024-02-15T11:22:57;4.75;;;2.70;;
82505;SDS011;72144;51.444;10.560;2024-02-15T11:25:37;4.80;;;3.17;;
82505;SDS011;72144;51.444;10.560;2024-02-15T11:30:53;5.60;;;2.55;;
82505;SDS011;72144;51.444;10.560;2024-02-15T11:38:55;3.17;;;2.20;;
82505;SDS011;72144;51.444;10.560;2024-02-15T11:41:20;4.45;;;2.50;;
82505;SDS011;72144;51.444;10.560;2024-02-15T11:43:48;2.95;;;2.15;;
82505;SDS011;72144;51.444;10.560;2024-02-15T11:46:15;3.88;;;2.50;;
82505;SDS011;72144;51.444;10.560;2024-02-15T11:48:43;3.65;;;2.55;;
82505;SDS011;72144;51.444;10.560;2024-02-15T11:51:25;3.50;;;2.30;;
82505;SDS011;72144;51.444;10.560;2024-02-15T11:54:01;3.70;;;2.47;;
82505;SDS011;72144;51.444;10.560;2024-02-15T11:56:30;5.05;;;2.33;;
82505;SDS011;72144;51.444;10.560;2024-02-15T11:59:19;3.55;;;2.35;;
82505;SDS011;72144;51.444;10.560;2024-02-15T12:01:57;5.22;;;2.03;;
82505;SDS011;72144;51.444;10.560;2024-02-15T12:04:42;3.78;;;2.08;;
82505;SDS011;72144;51.444;10.560;2024-02-15T12:07:27;4.03;;;2.55;;
82505;SDS011;72144;51.444;10.560;2024-02-15T12:10:15;4.40;;;2.33;;
82505;SDS011;72144;51.444;10.560;2024-02-15T12:13:02;5.00;;;2.30;;
82505;SDS011;72144;51.444;10.560;2024-02-15T12:15:58;3.55;;;1.92;;
82505;SDS011;72144;51.444;10.560;2024-02-15T12:18:43;3.20;;;1.70;;
82505;SDS011;72144;51.444;10.560;2024-02-15T12:21:12;3.47;;;2.17;;
82505;SDS011;72144;51.444;10.560;2024-02-15T12:23:40;3.15;;;2.08;;
82505;SDS011;72144;51.444;10.560;2024-02-15T12:26:06;4.45;;;1.90;;
82505;SDS011;72144;51.444;10.560;2024-02-15T12:28:32;3.90;;;2.00;;
82505;SDS011;72144;51.444;10.560;2024-02-15T12:31:00;3.90;;;1.90;;
82505;SDS011;72144;51.444;10.560;2024-02-15T12:33:27;4.43;;;1.95;;
82505;SDS011;72144;51.444;10.560;2024-02-15T12:35:52;4.47;;;1.70;;
82505;SDS011;72144;51.444;10.560;2024-02-15T12:38:30;2.65;;;1.60;;
82505;SDS011;72144;51.444;10.560;2024-02-15T12:40:55;4.75;;;2.22;;
82505;SDS011;72144;51.444;10.560;2024-02-15T12:43:21;4.25;;;1.88;;
82505;SDS011;72144;51.444;10.560;2024-02-15T12:45:47;5.30;;;1.98;;
82505;SDS011;72144;51.444;10.560;2024-02-15T12:48:12;4.15;;;1.98;;
82505;SDS011;72144;51.444;10.560;2024-02-15T12:50:40;2.92;;;1.63;;
82505;SDS011;72144;51.444;10.560;2024-02-15T12:53:06;3.70;;;2.00;;
82505;SDS011;72144;51.444;10.560;2024-02-15T12:55:33;2.42;;;1.70;;
82505;SDS011;72144;51.444;10.560;2024-02-15T12:58:01;3.13;;;1.70;;
82505;SDS011;72144;51.444;10.560;2024-02-15T13:00:33;3.05;;;1.63;;
82505;SDS011;72144;51.444;10.560;2024-02-15T13:03:04;3.65;;;2.10;;
82505;SDS011;72144;51.444;10.560;2024-02-15T13:05:34;3.80;;;2.03;;
82505;SDS011;72144;51.444;10.560;2024-02-15T13:08:01;3.30;;;1.63;;
82505;SDS011;72144;51.444;10.560;2024-02-15T13:10:28;3.92;;;1.98;;
82505;SDS011;72144;51.444;10.560;2024-02-15T13:12:54;3.65;;;1.90;;
82505;SDS011;72144;51.444;10.560;2024-02-15T13:15:20;3.70;;;2.10;;
82505;SDS011;72144;51.444;10.560;2024-02-15T13:17:47;4.97;;;2.00;;
82505;SDS011;72144;51.444;10.560;2024-02-15T13:20:16;4.00;;;2.33;;
82505;SDS011;72144;51.444;10.560;2024-02-15T13:22:45;5.03;;;2.10;;
82505;SDS011;72144;51.444;10.560;2024-02-15T13:25:14;4.15;;;2.20;;
82505;SDS011;72144;51.444;10.560;2024-02-15T13:27:41;3.83;;;2.10;;
82505;SDS011;72144;51.444;10.560;2024-02-15T13:30:08;4.40;;;2.10;;
82505;SDS011;72144;51.444;10.560;2024-02-15T13:32:38;4.82;;;2.20;;
82505;SDS011;72144;51.444;10.560;2024-02-15T13:35:06;5.10;;;2.30;;
82505;SDS011;72144;51.444;10.560;2024-02-15T13:37:39;4.75;;;2.15;;
82505;SDS011;72144;51.444;10.560;2024-02-15T13:40:11;4.87;;;2.30;;
82505;SDS011;72144;51.444;10.560;2024-02-15T13:42:48;3.47;;;2.33;;
82505;SDS011;72144;51.444;10.560;2024-02-15T13:45:17;3.60;;;2.58;;
82505;SDS011;72144;51.444;10.560;2024-02-15T13:47:46;4.88;;;2.47;;
82505;SDS011;72144;51.444;10.560;2024-02-15T13:50:15;4.20;;;2.40;;
82505;SDS011;72144;51.444;10.560;2024-02-15T13:52:42;3.83;;;2.30;;
82505;SDS011;72144;51.444;10.560;2024-02-15T13:55:09;5.80;;;2.30;;
82505;SDS011;72144;51.444;10.560;2024-02-15T13:57:37;3.88;;;2.13;;
82505;SDS011;72144;51.444;10.560;2024-02-15T14:00:04;3.05;;;2.30;;
82505;SDS011;72144;51.444;10.560;2024-02-15T14:02:31;4.28;;;2.30;;
82505;SDS011;72144;51.444;10.560;2024-02-15T14:04:56;5.20;;;2.40;;
82505;SDS011;72144;51.444;10.560;2024-02-15T14:07:22;4.40;;;2.50;;
82505;SDS011;72144;51.444;10.560;2024-02-15T14:09:47;2.17;;;1.50;;
82505;SDS011;72144;51.444;10.560;2024-02-15T14:12:12;3.80;;;2.00;;
82505;SDS011;72144;51.444;10.560;2024-02-15T14:14:39;3.40;;;2.30;;
82505;SDS011;72144;51.444;10.560;2024-02-15T14:17:05;4.50;;;2.42;;
82505;SDS011;72144;51.444;10.560;2024-02-15T14:19:30;4.43;;;2.67;;
82505;SDS011;72144;51.444;10.560;2024-02-15T14:21:56;3.78;;;2.53;;
82505;SDS011;72144;51.444;10.560;2024-02-15T14:24:21;5.50;;;3.10;;
82505;SDS011;72144;51.444;10.560;2024-02-15T14:26:48;4.90;;;2.60;;
82505;SDS011;72144;51.444;10.560;2024-02-15T14:29:14;6.82;;;3.63;;
82505;SDS011;72144;51.444;10.560;2024-02-15T14:31:39;4.38;;;2.63;;
82505;SDS011;72144;51.444;10.560;2024-02-15T14:34:24;4.45;;;2.80;;
82505;SDS011;72144;51.444;10.560;2024-02-15T14:36:50;5.97;;;2.78;;
82505;SDS011;72144;51.444;10.560;2024-02-15T14:39:16;3.17;;;1.90;;
82505;SDS011;72144;51.444;10.560;2024-02-15T14:41:42;4.55;;;2.60;;
82505;SDS011;72144;51.444;10.560;2024-02-15T14:44:08;4.28;;;2.63;;
82505;SDS011;72144;51.444;10.560;2024-02-15T14:46:34;4.90;;;2.40;;
82505;SDS011;72144;51.444;10.560;2024-02-15T14:49:01;4.35;;;2.28;;
82505;SDS011;72144;51.444;10.560;2024-02-15T14:51:27;5.88;;;2.80;;